createdAt,value
2022-10-16T00:01:27.163Z,7.15
2022-10-16T00:03:53.658Z,10.98
2022-10-16T00:06:22.411Z,11.00
2022-10-16T00:08:49.328Z,10.93
2022-10-16T00:11:25.701Z,12.23
2022-10-16T00:13:55.183Z,8.10
2022-10-16T00:16:21.553Z,6.35
2022-10-16T00:18:47.941Z,12.75
2022-10-16T00:21:17.711Z,8.15
2022-10-16T00:23:44.287Z,7.50
2022-10-16T00:26:14.870Z,7.57
2022-10-16T00:28:41.420Z,8.90
2022-10-16T00:31:10.453Z,8.20
2022-10-16T00:33:37.608Z,6.20
2022-10-16T00:36:05.118Z,7.57
2022-10-16T00:38:31.794Z,8.57
2022-10-16T00:40:58.449Z,4.55
2022-10-16T00:43:53.964Z,5.45
2022-10-16T00:46:26.448Z,5.13
2022-10-16T00:49:01.641Z,7.32
2022-10-16T00:51:36.553Z,6.18
2022-10-16T00:54:10.203Z,6.50
2022-10-16T00:56:36.666Z,6.82
2022-10-16T00:59:07.764Z,10.02
2022-10-16T01:01:34.222Z,7.28
2022-10-16T01:04:00.639Z,4.72
2022-10-16T01:06:41.268Z,5.82
2022-10-16T01:09:18.444Z,7.40
2022-10-16T01:11:56.789Z,5.03
2022-10-16T01:14:28.788Z,4.78
2022-10-16T01:17:01.653Z,6.68
2022-10-16T01:19:45.069Z,6.80
2022-10-16T01:22:11.515Z,3.83
2022-10-16T01:24:42.881Z,4.35
2022-10-16T01:27:21.004Z,5.30
2022-10-16T01:29:55.089Z,5.18
2022-10-16T01:32:31.071Z,3.65
2022-10-16T01:35:06.096Z,7.35
2022-10-16T01:37:48.202Z,3.22
2022-10-16T01:40:17.939Z,4.93
2022-10-16T01:42:49.303Z,12.32
2022-10-16T01:45:19.123Z,4.50
2022-10-16T01:47:46.617Z,4.32
2022-10-16T01:50:14.122Z,4.28
2022-10-16T01:52:43.227Z,8.48
2022-10-16T01:55:11.369Z,3.75
2022-10-16T01:57:39.286Z,6.43
2022-10-16T02:00:10.410Z,6.05
2022-10-16T02:02:37.422Z,8.60
2022-10-16T02:05:12.055Z,7.13
2022-10-16T02:07:38.441Z,4.43
2022-10-16T02:10:05.207Z,6.47
2022-10-16T02:12:34.173Z,4.85
2022-10-16T02:15:00.552Z,5.75
2022-10-16T02:17:27.314Z,4.93
2022-10-16T02:19:55.426Z,9.23
2022-10-16T02:22:35.159Z,3.67
2022-10-16T02:25:14.720Z,4.45
2022-10-16T02:27:51.645Z,6.82
2022-10-16T02:30:31.823Z,4.15
2022-10-16T02:33:01.050Z,2.95
2022-10-16T02:35:28.280Z,3.53
2022-10-16T02:37:55.343Z,5.38
2022-10-16T02:40:24.497Z,4.03
2022-10-16T02:42:53.209Z,4.18
2022-10-16T02:45:20.096Z,2.50
2022-10-16T02:47:46.572Z,2.60
2022-10-16T02:50:12.962Z,2.22
2022-10-16T02:52:39.472Z,4.38
2022-10-16T02:55:06.201Z,2.80
2022-10-16T02:57:32.874Z,2.22
2022-10-16T02:59:59.687Z,2.28
2022-10-16T03:02:26.105Z,2.17
2022-10-16T03:04:52.471Z,5.05
2022-10-16T03:07:18.835Z,3.60
2022-10-16T03:09:45.221Z,2.83
2022-10-16T03:12:12.934Z,2.10
2022-10-16T03:14:40.745Z,2.78
2022-10-16T03:17:07.455Z,3.47
2022-10-16T03:19:33.821Z,4.15
2022-10-16T03:22:00.162Z,2.35
2022-10-16T03:24:26.526Z,3.03
2022-10-16T03:26:52.888Z,2.50
2022-10-16T03:29:19.261Z,2.67
2022-10-16T03:31:45.683Z,4.50
2022-10-16T03:34:12.048Z,2.95
2022-10-16T03:36:38.506Z,4.30
2022-10-16T03:39:04.903Z,5.60
2022-10-16T03:41:31.425Z,3.90
2022-10-16T03:43:57.818Z,7.85
2022-10-16T03:46:24.210Z,2.10
2022-10-16T03:48:50.579Z,3.88
2022-10-16T03:51:16.942Z,1.73
2022-10-16T03:53:43.337Z,2.88
2022-10-16T03:56:09.687Z,2.15
2022-10-16T03:58:36.040Z,2.22
2022-10-16T04:01:02.501Z,2.80
2022-10-16T04:03:28.928Z,1.95
2022-10-16T04:05:55.398Z,3.90
2022-10-16T04:08:21.816Z,4.20
2022-10-16T04:10:48.202Z,4.45
2022-10-16T04:13:14.659Z,3.13
2022-10-16T04:15:41.030Z,3.97
2022-10-16T04:18:07.693Z,2.78
2022-10-16T04:20:34.655Z,5.95
2022-10-16T04:23:01.095Z,4.80
2022-10-16T04:25:27.547Z,3.03
2022-10-16T04:27:54.770Z,10.65
2022-10-16T04:30:22.084Z,3.80
2022-10-16T04:32:52.338Z,1.67
2022-10-16T04:35:19.691Z,3.03
2022-10-16T04:37:46.059Z,4.65
2022-10-16T04:40:12.806Z,3.22
2022-10-16T04:42:39.200Z,3.67
2022-10-16T04:45:06.672Z,1.42
2022-10-16T04:47:33.037Z,2.80
2022-10-16T04:50:01.976Z,2.60
2022-10-16T04:52:28.475Z,2.28
2022-10-16T04:54:55.151Z,1.48
2022-10-16T04:57:21.500Z,1.75
2022-10-16T04:59:47.879Z,2.92
2022-10-16T05:02:14.220Z,2.15
2022-10-16T05:04:40.615Z,2.85
2022-10-16T05:07:06.999Z,2.25
2022-10-16T05:09:33.359Z,2.88
2022-10-16T05:11:59.712Z,2.50
2022-10-16T05:14:26.058Z,3.35
2022-10-16T05:16:52.787Z,1.95
2022-10-16T05:19:28.100Z,2.00
2022-10-16T05:21:55.043Z,2.00
2022-10-16T05:24:21.573Z,2.95
2022-10-16T05:26:48.037Z,2.90
2022-10-16T05:29:14.416Z,4.75
2022-10-16T05:31:40.805Z,2.00
2022-10-16T05:34:07.186Z,1.90
2022-10-16T05:36:33.609Z,2.00
2022-10-16T05:38:59.972Z,1.23
2022-10-16T05:41:27.150Z,1.48
2022-10-16T05:43:53.960Z,2.80
2022-10-16T05:46:20.371Z,2.22
2022-10-16T05:48:46.874Z,3.60
2022-10-16T05:51:14.557Z,2.97
2022-10-16T05:53:41.898Z,1.50
2022-10-16T05:56:10.479Z,4.93
2022-10-16T05:58:37.989Z,2.60
2022-10-16T06:01:07.832Z,1.73
2022-10-16T06:03:35.025Z,1.30
2022-10-16T06:06:12.506Z,3.65
2022-10-16T06:08:39.571Z,1.40
2022-10-16T06:11:07.787Z,3.47
2022-10-16T06:13:34.172Z,3.05
2022-10-16T06:16:01.416Z,3.17
2022-10-16T06:18:28.844Z,1.98
2022-10-16T06:20:56.212Z,1.67
2022-10-16T06:23:22.735Z,1.88
2022-10-16T06:25:49.096Z,1.30
2022-10-16T06:28:16.010Z,1.35
2022-10-16T06:30:44.712Z,2.20
2022-10-16T06:33:11.798Z,1.50
2022-10-16T06:35:38.256Z,2.85
2022-10-16T06:38:04.649Z,1.45
2022-10-16T06:40:31.068Z,1.50
2022-10-16T06:42:57.456Z,3.13
2022-10-16T06:45:23.868Z,2.92
2022-10-16T06:47:50.219Z,2.08
2022-10-16T06:50:16.876Z,1.63
2022-10-16T06:52:43.229Z,2.88
2022-10-16T06:55:09.639Z,1.88
2022-10-16T06:57:36.018Z,1.80
2022-10-16T07:00:02.479Z,2.88
2022-10-16T07:02:29.315Z,3.00
2022-10-16T07:04:57.759Z,3.45
2022-10-16T07:07:25.688Z,3.28
2022-10-16T07:09:52.062Z,1.90
2022-10-16T07:12:18.674Z,1.75
2022-10-16T07:14:45.034Z,1.88
2022-10-16T07:17:11.433Z,3.42
2022-10-16T07:19:37.896Z,2.13
2022-10-16T07:22:04.331Z,2.80
2022-10-16T07:24:30.728Z,4.53
2022-10-16T07:26:57.117Z,1.73
2022-10-16T07:29:23.527Z,2.45
2022-10-16T07:31:50.513Z,3.55
2022-10-16T07:34:18.773Z,1.73
2022-10-16T07:36:45.231Z,1.52
2022-10-16T07:39:11.601Z,2.78
2022-10-16T07:41:38.035Z,2.33
2022-10-16T07:44:04.713Z,2.67
2022-10-16T07:46:31.603Z,2.45
2022-10-16T07:48:57.980Z,2.15
2022-10-16T07:51:25.705Z,3.13
2022-10-16T07:53:52.865Z,1.80
2022-10-16T07:56:19.463Z,3.28
2022-10-16T07:58:46.147Z,3.28
2022-10-16T08:01:16.867Z,2.05
2022-10-16T08:03:44.640Z,1.95
2022-10-16T08:06:11.071Z,4.90
2022-10-16T08:08:37.436Z,3.90
2022-10-16T08:11:06.707Z,3.33
2022-10-16T08:13:33.123Z,1.88
2022-10-16T08:15:59.716Z,2.35
2022-10-16T08:18:26.118Z,4.07
2022-10-16T08:20:59.406Z,6.95
2022-10-16T08:23:26.953Z,3.85
2022-10-16T08:25:54.531Z,3.78
2022-10-16T08:28:21.381Z,1.98
2022-10-16T08:30:47.792Z,1.90
2022-10-16T08:33:14.174Z,2.30
2022-10-16T08:35:40.606Z,2.50
2022-10-16T08:38:07.358Z,5.47
2022-10-16T08:40:35.319Z,3.33
2022-10-16T08:43:08.727Z,3.83
2022-10-16T08:45:53.962Z,4.25
2022-10-16T08:48:26.814Z,1.58
2022-10-16T08:50:53.691Z,3.05
2022-10-16T08:53:40.221Z,3.13
2022-10-16T08:56:06.901Z,2.10
2022-10-16T08:58:33.264Z,3.58
2022-10-16T09:01:02.328Z,2.30
2022-10-16T09:03:53.710Z,1.10
2022-10-16T09:06:54.121Z,3.28
2022-10-16T09:09:57.851Z,1.30
2022-10-16T09:12:37.796Z,2.90
2022-10-16T09:15:54.722Z,2.00
2022-10-16T09:18:30.000Z,3.55
2022-10-16T09:21:19.594Z,2.63
2022-10-16T09:23:46.122Z,5.90
2022-10-16T09:26:15.102Z,5.38
2022-10-16T09:28:42.060Z,0.85
2022-10-16T09:31:17.389Z,2.42
2022-10-16T09:33:45.019Z,2.28
2022-10-16T09:36:13.177Z,2.70
2022-10-16T09:38:39.593Z,3.45
2022-10-16T09:41:20.582Z,4.65
2022-10-16T09:43:48.025Z,2.90
2022-10-16T09:46:30.467Z,2.58
2022-10-16T09:49:01.594Z,3.78
2022-10-16T09:51:38.277Z,5.22
2022-10-16T09:54:10.555Z,5.93
2022-10-16T09:56:40.006Z,3.08
2022-10-16T09:59:14.381Z,1.70
2022-10-16T10:01:42.831Z,3.53
2022-10-16T10:04:09.299Z,2.65
2022-10-16T10:06:40.495Z,2.72
2022-10-16T10:09:08.004Z,2.77
2022-10-16T10:11:55.759Z,3.38
2022-10-16T10:14:34.634Z,4.03
2022-10-16T10:17:12.625Z,1.92
2022-10-16T10:19:47.048Z,3.03
2022-10-16T10:22:25.277Z,2.15
2022-10-16T10:25:04.054Z,2.35
2022-10-16T10:27:41.220Z,2.15
2022-10-16T10:33:01.772Z,1.67
2022-10-16T10:35:48.323Z,5.80
2022-10-16T10:38:32.273Z,2.45
2022-10-16T10:41:14.133Z,1.60
2022-10-16T10:43:58.812Z,1.50
2022-10-16T10:46:39.793Z,2.45
2022-10-16T10:49:37.425Z,1.38
2022-10-16T10:52:35.593Z,1.80
2022-10-16T10:55:28.085Z,2.83
2022-10-16T10:58:21.859Z,2.20
2022-10-16T11:01:04.344Z,4.07
2022-10-16T11:03:58.153Z,1.23
2022-10-16T11:06:29.385Z,2.00
2022-10-16T11:09:08.595Z,2.92
2022-10-16T11:12:20.251Z,1.63
2022-10-16T11:15:01.741Z,4.70
2022-10-16T11:17:33.063Z,0.82
2022-10-16T11:20:05.307Z,0.73
2022-10-16T11:22:36.997Z,1.83
2022-10-16T11:25:23.171Z,0.85
2022-10-16T11:28:12.605Z,2.80
2022-10-16T11:30:44.307Z,1.88
2022-10-16T11:33:24.273Z,1.60
2022-10-16T11:35:59.775Z,1.50
2022-10-16T11:38:51.950Z,1.33
2022-10-16T11:41:36.693Z,0.82
2022-10-16T11:44:19.100Z,1.80
2022-10-16T11:46:59.381Z,1.52
2022-10-16T11:49:37.456Z,4.40
2022-10-16T11:54:53.738Z,2.58
2022-10-16T11:57:25.788Z,1.10
2022-10-16T11:59:57.162Z,4.72
2022-10-16T12:02:50.984Z,1.75
2022-10-16T12:05:53.011Z,3.55
2022-10-16T12:08:19.545Z,1.38
2022-10-16T12:10:47.694Z,1.83
2022-10-16T12:13:29.226Z,3.13
2022-10-16T12:16:22.157Z,1.63
2022-10-16T12:18:49.802Z,1.65
2022-10-16T12:21:19.837Z,2.30
2022-10-16T12:23:51.651Z,1.25
2022-10-16T12:26:32.818Z,2.17
2022-10-16T12:29:14.860Z,0.82
2022-10-16T12:31:57.395Z,1.10
2022-10-16T12:34:42.679Z,3.70
2022-10-16T12:37:16.088Z,2.78
2022-10-16T12:39:42.585Z,1.02
2022-10-16T12:42:27.534Z,4.57
2022-10-16T12:44:55.356Z,4.30
2022-10-16T12:47:35.927Z,2.83
2022-10-16T12:50:07.266Z,1.58
2022-10-16T12:52:38.779Z,2.20
2022-10-16T12:55:06.900Z,2.05
2022-10-16T12:57:45.738Z,2.40
2022-10-16T13:00:37.599Z,1.70
2022-10-16T13:03:05.202Z,3.28
2022-10-16T13:05:51.838Z,2.03
2022-10-16T13:08:47.380Z,2.38
2022-10-16T13:11:45.631Z,1.02
2022-10-16T13:14:30.354Z,3.15
2022-10-16T13:17:11.120Z,0.63
2022-10-16T13:19:46.654Z,4.65
2022-10-16T13:22:28.959Z,1.70
2022-10-16T13:25:11.647Z,1.95
2022-10-16T13:27:59.068Z,1.92
2022-10-16T13:30:31.229Z,1.67
2022-10-16T13:33:08.888Z,1.65
2022-10-16T13:35:37.334Z,0.55
2022-10-16T13:38:13.150Z,1.27
2022-10-16T13:40:55.254Z,2.40
2022-10-16T13:43:28.205Z,3.13
2022-10-16T13:45:55.692Z,1.10
2022-10-16T13:48:22.122Z,2.45
2022-10-16T13:51:01.245Z,1.85
2022-10-16T13:53:27.855Z,1.33
2022-10-16T13:55:54.238Z,1.33
2022-10-16T13:58:20.694Z,1.83
2022-10-16T14:00:58.084Z,1.13
2022-10-16T14:03:24.987Z,0.93
2022-10-16T14:05:57.944Z,1.67
2022-10-16T14:08:26.175Z,4.32
2022-10-16T14:10:55.317Z,1.00
2022-10-16T14:13:31.244Z,1.08
2022-10-16T14:15:59.567Z,1.92
2022-10-16T14:18:29.867Z,3.45
2022-10-16T14:21:07.337Z,0.80
2022-10-16T14:23:41.333Z,2.08
2022-10-16T14:26:10.616Z,3.00
2022-10-16T14:28:41.580Z,1.20
2022-10-16T14:31:20.051Z,2.05
2022-10-16T14:33:46.785Z,3.13
2022-10-16T14:36:15.234Z,2.03
2022-10-16T14:38:43.767Z,1.48
2022-10-16T14:41:10.456Z,5.20
2022-10-16T14:43:38.719Z,3.05
2022-10-16T14:46:10.586Z,1.00
2022-10-16T14:48:36.997Z,2.05
2022-10-16T14:51:03.399Z,0.63
2022-10-16T14:53:29.779Z,1.88
2022-10-16T14:55:56.164Z,0.70
2022-10-16T14:58:23.854Z,3.47
2022-10-16T15:00:50.264Z,1.90
2022-10-16T15:03:16.804Z,3.10
2022-10-16T15:05:43.193Z,3.08
2022-10-16T15:08:11.281Z,2.67
2022-10-16T15:10:41.548Z,2.53
2022-10-16T15:13:11.215Z,1.77
2022-10-16T15:15:47.874Z,2.08
2022-10-16T15:18:16.141Z,1.27
2022-10-16T15:20:42.829Z,3.63
2022-10-16T15:23:15.819Z,4.20
2022-10-16T15:25:44.787Z,1.65
2022-10-16T15:28:11.967Z,1.92
2022-10-16T15:30:39.097Z,0.90
2022-10-16T15:33:06.705Z,5.43
2022-10-16T15:35:33.076Z,5.00
2022-10-16T15:37:59.453Z,7.28
2022-10-16T15:40:25.858Z,2.67
2022-10-16T15:42:52.218Z,3.92
2022-10-16T15:45:20.010Z,3.63
2022-10-16T15:47:46.836Z,7.15
2022-10-16T15:50:14.688Z,9.57
2022-10-16T15:52:41.522Z,7.70
2022-10-16T15:55:09.575Z,11.88
2022-10-16T15:57:39.058Z,15.48
2022-10-16T16:00:13.671Z,9.02
2022-10-16T16:02:41.376Z,4.40
2022-10-16T16:05:09.019Z,6.57
2022-10-16T16:07:36.468Z,2.15
2022-10-16T16:10:04.698Z,5.15
2022-10-16T16:12:31.136Z,7.53
2022-10-16T16:14:58.908Z,4.65
2022-10-16T16:17:28.316Z,2.97
2022-10-16T16:19:54.658Z,2.65
2022-10-16T16:22:21.030Z,1.35
2022-10-16T16:24:47.386Z,3.25
2022-10-16T16:27:14.521Z,4.38
2022-10-16T16:29:40.959Z,7.97
2022-10-16T16:32:07.333Z,6.13
2022-10-16T16:34:33.690Z,1.77
2022-10-16T16:37:00.051Z,2.28
2022-10-16T16:39:26.678Z,3.83
2022-10-16T16:41:53.345Z,4.05
2022-10-16T16:44:19.720Z,4.40
2022-10-16T16:46:46.171Z,5.63
2022-10-16T16:49:14.026Z,3.47
2022-10-16T16:51:40.785Z,9.23
2022-10-16T16:54:10.587Z,11.88
2022-10-16T16:56:37.296Z,8.15
2022-10-16T16:59:04.676Z,10.68
2022-10-16T17:01:32.270Z,7.30
2022-10-16T17:03:59.039Z,7.72
2022-10-16T17:06:27.970Z,7.63
2022-10-16T17:08:54.669Z,11.32
2022-10-16T17:11:24.732Z,8.95
2022-10-16T17:13:56.412Z,19.40
2022-10-16T17:16:26.671Z,13.48
2022-10-16T17:18:53.999Z,11.13
2022-10-16T17:21:20.369Z,8.35
2022-10-16T17:23:46.744Z,9.27
2022-10-16T17:26:17.261Z,8.07
2022-10-16T17:28:44.368Z,8.18
2022-10-16T17:31:21.250Z,8.50
2022-10-16T17:33:47.763Z,8.20
2022-10-16T17:36:17.234Z,12.70
2022-10-16T17:38:43.984Z,9.00
2022-10-16T17:41:14.709Z,9.70
2022-10-16T17:43:41.792Z,20.45
2022-10-16T17:46:09.418Z,10.80
2022-10-16T17:48:40.065Z,12.27
2022-10-16T17:51:08.040Z,8.40
2022-10-16T17:53:35.225Z,6.60
2022-10-16T17:56:10.263Z,8.55
2022-10-16T17:58:36.883Z,8.68
2022-10-16T18:01:12.386Z,7.78
2022-10-16T18:03:38.871Z,8.43
2022-10-16T18:06:05.316Z,10.57
2022-10-16T18:08:31.884Z,9.13
2022-10-16T18:10:58.301Z,12.55
2022-10-16T18:13:25.051Z,8.00
2022-10-16T18:16:06.283Z,11.93
2022-10-16T18:18:32.737Z,9.65
2022-10-16T18:21:00.242Z,9.32
2022-10-16T18:23:27.221Z,9.70
2022-10-16T18:25:53.758Z,7.30
2022-10-16T18:28:20.623Z,5.60
2022-10-16T18:30:55.487Z,6.75
2022-10-16T18:33:22.153Z,7.85
2022-10-16T18:35:48.530Z,30.58
2022-10-16T18:38:14.949Z,16.42
2022-10-16T18:40:41.707Z,18.50
2022-10-16T18:43:08.143Z,6.13
2022-10-16T18:45:34.541Z,6.15
2022-10-16T18:48:00.909Z,10.50
2022-10-16T18:50:27.268Z,9.13
2022-10-16T18:52:53.623Z,7.78
2022-10-16T18:55:21.274Z,10.25
2022-10-16T18:57:47.627Z,11.57
2022-10-16T19:00:14.101Z,8.27
2022-10-16T19:02:40.550Z,7.95
2022-10-16T19:05:11.908Z,6.80
2022-10-16T19:07:43.195Z,6.50
2022-10-16T19:10:09.593Z,5.82
2022-10-16T19:12:36.174Z,7.88
2022-10-16T19:15:02.518Z,10.95
2022-10-16T19:17:28.870Z,13.23
2022-10-16T19:19:56.203Z,12.18
2022-10-16T19:22:40.729Z,12.32
2022-10-16T19:25:07.881Z,9.10
2022-10-16T19:27:34.253Z,12.90
2022-10-16T19:30:00.766Z,8.02
2022-10-16T19:32:27.455Z,8.52
2022-10-16T19:34:54.187Z,7.57
2022-10-16T19:37:25.673Z,9.77
2022-10-16T19:39:52.080Z,8.63
2022-10-16T19:42:18.455Z,9.90
2022-10-16T19:44:44.844Z,11.73
2022-10-16T19:47:11.210Z,11.27
2022-10-16T19:49:37.660Z,9.40
2022-10-16T19:52:04.059Z,8.93
2022-10-16T19:54:30.454Z,8.25
2022-10-16T19:56:58.676Z,8.32
2022-10-16T19:59:25.127Z,12.15
2022-10-16T20:01:51.640Z,13.40
2022-10-16T20:04:18.067Z,18.13
2022-10-16T20:06:44.856Z,12.40
2022-10-16T20:09:11.273Z,15.88
2022-10-16T20:11:38.210Z,18.17
2022-10-16T20:14:05.179Z,21.10
2022-10-16T20:16:32.204Z,16.48
2022-10-16T20:18:59.291Z,14.20
2022-10-16T20:21:27.551Z,22.40
2022-10-16T20:23:53.980Z,19.77
2022-10-16T20:26:23.806Z,16.95
2022-10-16T20:28:50.620Z,16.73
2022-10-16T20:31:25.324Z,14.68
2022-10-16T20:33:53.340Z,15.00
2022-10-16T20:36:21.361Z,15.48
2022-10-16T20:38:48.026Z,18.50
2022-10-16T20:41:15.507Z,15.38
2022-10-16T20:46:19.321Z,14.38
2022-10-16T20:48:46.991Z,15.77
2022-10-16T20:51:27.938Z,14.07
2022-10-16T20:53:59.285Z,16.08
2022-10-16T20:56:26.609Z,14.50
2022-10-16T20:58:53.273Z,21.17
2022-10-16T21:01:21.834Z,16.00
2022-10-16T21:03:57.004Z,17.55
2022-10-16T21:06:24.007Z,14.57
2022-10-16T21:08:50.584Z,14.32
2022-10-16T21:11:19.910Z,16.42
2022-10-16T21:13:46.408Z,15.45
2022-10-16T21:16:13.804Z,14.82
2022-10-16T21:18:44.228Z,18.60
2022-10-16T21:21:18.303Z,13.40
2022-10-16T21:23:44.667Z,21.73
2022-10-16T21:26:11.012Z,14.35
2022-10-16T21:28:37.395Z,17.20
2022-10-16T21:31:22.339Z,18.10
2022-10-16T21:33:50.336Z,15.10
2022-10-16T21:36:22.349Z,13.25
2022-10-16T21:38:49.050Z,15.73
2022-10-16T21:41:16.911Z,13.43
2022-10-16T21:43:43.993Z,16.65
2022-10-16T21:46:10.447Z,18.38
2022-10-16T21:48:37.186Z,16.75
2022-10-16T21:51:03.672Z,17.50
2022-10-16T21:53:30.026Z,19.80
2022-10-16T21:55:56.630Z,16.33
2022-10-16T21:58:23.091Z,16.85
2022-10-16T22:00:49.514Z,17.92
2022-10-16T22:03:15.918Z,21.17
2022-10-16T22:05:42.288Z,19.13
2022-10-16T22:08:08.668Z,29.85
2022-10-16T22:10:35.109Z,14.95
2022-10-16T22:13:01.500Z,19.90
2022-10-16T22:15:27.869Z,15.55
2022-10-16T22:17:54.223Z,18.92
2022-10-16T22:20:20.630Z,29.65
2022-10-16T22:22:46.984Z,30.73
2022-10-16T22:25:13.355Z,16.45
2022-10-16T22:27:39.717Z,17.02
2022-10-16T22:30:06.684Z,11.18
2022-10-16T22:32:33.360Z,20.88
2022-10-16T22:34:59.748Z,15.10
2022-10-16T22:37:26.548Z,12.45
2022-10-16T22:39:54.343Z,11.15
2022-10-16T22:42:22.156Z,14.43
2022-10-16T22:44:48.536Z,17.50
2022-10-16T22:47:14.897Z,23.13
2022-10-16T22:49:41.256Z,15.60
2022-10-16T22:52:07.637Z,17.70
2022-10-16T22:54:34.095Z,15.38
2022-10-16T22:57:00.451Z,15.38
2022-10-16T22:59:26.812Z,14.70
2022-10-16T23:01:53.168Z,14.77
2022-10-16T23:04:19.532Z,19.63
2022-10-16T23:06:45.900Z,16.60
2022-10-16T23:09:12.368Z,24.00
2022-10-16T23:11:38.738Z,18.58
2022-10-16T23:14:05.152Z,18.98
2022-10-16T23:16:31.645Z,24.52
2022-10-16T23:18:58.360Z,19.90
2022-10-16T23:21:25.781Z,17.55
2022-10-16T23:23:52.976Z,15.45
2022-10-16T23:26:24.805Z,15.50
2022-10-16T23:28:51.237Z,13.75
2022-10-16T23:31:18.394Z,15.63
2022-10-16T23:33:45.056Z,14.95
2022-10-16T23:36:14.400Z,16.85
2022-10-16T23:38:41.301Z,19.08
2022-10-16T23:41:07.930Z,21.15
2022-10-16T23:43:34.429Z,21.98
2022-10-16T23:46:01.035Z,19.90
2022-10-16T23:48:27.580Z,18.70
2022-10-16T23:50:53.949Z,23.10
2022-10-16T23:53:20.377Z,21.35
2022-10-16T23:55:46.816Z,18.00
2022-10-16T23:58:13.179Z,21.10
